sensor_id;sensor_type;location;lat;lon;timestamp;P1;durP1;ratioP1;P2;durP2;ratioP2
57231;SDS011;43488;46.934;8.276;2022-08-19T00:01:47;585.20;;;402.52;;
57231;SDS011;43488;46.934;8.276;2022-08-19T00:04:17;596.72;;;341.60;;
57231;SDS011;43488;46.934;8.276;2022-08-19T00:06:47;589.33;;;413.98;;
57231;SDS011;43488;46.934;8.276;2022-08-19T00:09:15;593.55;;;333.65;;
57231;SDS011;43488;46.934;8.276;2022-08-19T00:11:46;587.58;;;410.65;;
57231;SDS011;43488;46.934;8.276;2022-08-19T00:14:14;587.45;;;407.85;;
57231;SDS011;43488;46.934;8.276;2022-08-19T00:16:45;584.42;;;400.73;;
57231;SDS011;43488;46.934;8.276;2022-08-19T00:19:15;588.67;;;410.17;;
57231;SDS011;43488;46.934;8.276;2022-08-19T00:21:43;605.17;;;349.73;;
57231;SDS011;43488;46.934;8.276;2022-08-19T00:24:12;588.45;;;413.70;;
57231;SDS011;43488;46.934;8.276;2022-08-19T00:26:43;594.72;;;337.90;;
57231;SDS011;43488;46.934;8.276;2022-08-19T00:29:13;587.13;;;408.38;;
57231;SDS011;43488;46.934;8.276;2022-08-19T00:31:44;584.60;;;403.00;;
57231;SDS011;43488;46.934;8.276;2022-08-19T00:34:12;588.60;;;414.70;;
57231;SDS011;43488;46.934;8.276;2022-08-19T00:36:41;601.83;;;347.15;;
57231;SDS011;43488;46.934;8.276;2022-08-19T00:39:09;595.35;;;335.67;;
57231;SDS011;43488;46.934;8.276;2022-08-19T00:41:38;588.53;;;409.70;;
57231;SDS011;43488;46.934;8.276;2022-08-19T00:44:08;584.20;;;403.27;;
57231;SDS011;43488;46.934;8.276;2022-08-19T00:46:41;595.38;;;341.52;;
57231;SDS011;43488;46.934;8.276;2022-08-19T00:49:14;590.15;;;412.73;;
57231;SDS011;43488;46.934;8.276;2022-08-19T00:51:48;600.65;;;341.80;;
57231;SDS011;43488;46.934;8.276;2022-08-19T00:54:26;591.67;;;420.88;;
57231;SDS011;43488;46.934;8.276;2022-08-19T00:56:55;586.38;;;410.35;;
57231;SDS011;43488;46.934;8.276;2022-08-19T00:59:22;595.33;;;338.67;;
57231;SDS011;43488;46.934;8.276;2022-08-19T01:01:50;588.60;;;411.85;;
57231;SDS011;43488;46.934;8.276;2022-08-19T01:04:18;586.72;;;409.08;;
57231;SDS011;43488;46.934;8.276;2022-08-19T01:06:46;597.70;;;346.02;;
57231;SDS011;43488;46.934;8.276;2022-08-19T01:09:14;586.58;;;407.15;;
57231;SDS011;43488;46.934;8.276;2022-08-19T01:11:42;593.53;;;335.65;;
57231;SDS011;43488;46.934;8.276;2022-08-19T01:14:11;601.33;;;342.55;;
57231;SDS011;43488;46.934;8.276;2022-08-19T01:16:40;597.70;;;338.70;;
57231;SDS011;43488;46.934;8.276;2022-08-19T01:19:18;589.72;;;406.83;;
57231;SDS011;43488;46.934;8.276;2022-08-19T01:22:08;589.22;;;413.75;;
57231;SDS011;43488;46.934;8.276;2022-08-19T01:24:39;589.35;;;411.15;;
57231;SDS011;43488;46.934;8.276;2022-08-19T01:27:07;602.50;;;342.00;;
57231;SDS011;43488;46.934;8.276;2022-08-19T01:29:37;589.38;;;409.05;;
57231;SDS011;43488;46.934;8.276;2022-08-19T01:32:12;598.15;;;335.80;;
57231;SDS011;43488;46.934;8.276;2022-08-19T01:34:42;596.47;;;330.58;;
57231;SDS011;43488;46.934;8.276;2022-08-19T01:37:13;592.97;;;331.23;;
57231;SDS011;43488;46.934;8.276;2022-08-19T01:39:41;594.95;;;337.42;;
57231;SDS011;43488;46.934;8.276;2022-08-19T01:42:10;585.15;;;397.00;;
57231;SDS011;43488;46.934;8.276;2022-08-19T01:44:39;591.92;;;419.33;;
57231;SDS011;43488;46.934;8.276;2022-08-19T01:47:09;587.90;;;409.55;;
57231;SDS011;43488;46.934;8.276;2022-08-19T01:49:36;589.47;;;413.33;;
57231;SDS011;43488;46.934;8.276;2022-08-19T01:52:04;593.40;;;424.85;;
57231;SDS011;43488;46.934;8.276;2022-08-19T01:54:33;604.40;;;348.83;;
57231;SDS011;43488;46.934;8.276;2022-08-19T01:57:02;596.35;;;431.90;;
57231;SDS011;43488;46.934;8.276;2022-08-19T01:59:34;589.13;;;408.05;;
57231;SDS011;43488;46.934;8.276;2022-08-19T02:02:04;597.85;;;344.55;;
57231;SDS011;43488;46.934;8.276;2022-08-19T02:04:36;586.00;;;410.77;;
57231;SDS011;43488;46.934;8.276;2022-08-19T02:07:06;595.85;;;419.42;;
57231;SDS011;43488;46.934;8.276;2022-08-19T02:09:34;583.83;;;400.42;;
57231;SDS011;43488;46.934;8.276;2022-08-19T02:12:06;597.85;;;338.27;;
57231;SDS011;43488;46.934;8.276;2022-08-19T02:14:35;600.75;;;340.05;;
57231;SDS011;43488;46.934;8.276;2022-08-19T02:17:03;584.08;;;405.75;;
57231;SDS011;43488;46.934;8.276;2022-08-19T02:19:30;600.70;;;341.08;;
57231;SDS011;43488;46.934;8.276;2022-08-19T02:21:59;592.08;;;331.15;;
57231;SDS011;43488;46.934;8.276;2022-08-19T02:24:26;588.22;;;409.77;;
57231;SDS011;43488;46.934;8.276;2022-08-19T02:26:54;584.83;;;407.08;;
57231;SDS011;43488;46.934;8.276;2022-08-19T02:29:21;585.63;;;402.80;;
57231;SDS011;43488;46.934;8.276;2022-08-19T02:31:50;586.72;;;412.75;;
57231;SDS011;43488;46.934;8.276;2022-08-19T02:34:17;585.22;;;403.20;;
57231;SDS011;43488;46.934;8.276;2022-08-19T02:36:45;592.90;;;421.88;;
57231;SDS011;43488;46.934;8.276;2022-08-19T02:39:12;590.45;;;407.83;;
57231;SDS011;43488;46.934;8.276;2022-08-19T02:41:39;589.30;;;408.80;;
57231;SDS011;43488;46.934;8.276;2022-08-19T02:44:08;596.10;;;338.48;;
57231;SDS011;43488;46.934;8.276;2022-08-19T02:46:35;598.97;;;349.10;;
57231;SDS011;43488;46.934;8.276;2022-08-19T02:49:04;605.67;;;348.95;;
57231;SDS011;43488;46.934;8.276;2022-08-19T02:51:38;593.42;;;330.77;;
57231;SDS011;43488;46.934;8.276;2022-08-19T02:54:09;592.83;;;331.02;;
57231;SDS011;43488;46.934;8.276;2022-08-19T02:56:40;584.27;;;398.20;;
57231;SDS011;43488;46.934;8.276;2022-08-19T02:59:08;606.40;;;350.70;;
57231;SDS011;43488;46.934;8.276;2022-08-19T03:01:38;599.95;;;339.00;;
57231;SDS011;43488;46.934;8.276;2022-08-19T03:04:08;602.65;;;342.75;;
57231;SDS011;43488;46.934;8.276;2022-08-19T03:09:10;602.72;;;337.08;;
57231;SDS011;43488;46.934;8.276;2022-08-19T03:11:38;597.58;;;340.33;;
57231;SDS011;43488;46.934;8.276;2022-08-19T03:14:08;589.40;;;408.42;;
57231;SDS011;43488;46.934;8.276;2022-08-19T03:16:44;582.97;;;401.67;;
57231;SDS011;43488;46.934;8.276;2022-08-19T03:19:17;591.83;;;414.67;;
57231;SDS011;43488;46.934;8.276;2022-08-19T03:21:46;587.90;;;406.17;;
57231;SDS011;43488;46.934;8.276;2022-08-19T03:24:14;587.72;;;406.25;;
57231;SDS011;43488;46.934;8.276;2022-08-19T03:26:45;603.67;;;344.60;;
57231;SDS011;43488;46.934;8.276;2022-08-19T03:29:19;593.58;;;413.33;;
57231;SDS011;43488;46.934;8.276;2022-08-19T03:31:47;602.88;;;353.77;;
57231;SDS011;43488;46.934;8.276;2022-08-19T03:34:15;596.25;;;341.63;;
57231;SDS011;43488;46.934;8.276;2022-08-19T03:36:48;596.38;;;339.67;;
57231;SDS011;43488;46.934;8.276;2022-08-19T03:39:15;607.00;;;349.75;;
57231;SDS011;43488;46.934;8.276;2022-08-19T03:41:44;604.78;;;346.88;;
57231;SDS011;43488;46.934;8.276;2022-08-19T03:44:13;603.47;;;343.33;;
57231;SDS011;43488;46.934;8.276;2022-08-19T03:46:51;596.10;;;423.10;;
57231;SDS011;43488;46.934;8.276;2022-08-19T03:49:23;591.70;;;407.85;;
57231;SDS011;43488;46.934;8.276;2022-08-19T03:51:54;586.55;;;402.33;;
57231;SDS011;43488;46.934;8.276;2022-08-19T03:54:25;603.70;;;342.42;;
57231;SDS011;43488;46.934;8.276;2022-08-19T03:56:55;604.08;;;353.50;;
57231;SDS011;43488;46.934;8.276;2022-08-19T03:59:25;597.05;;;416.27;;
57231;SDS011;43488;46.934;8.276;2022-08-19T04:01:59;598.45;;;340.98;;
57231;SDS011;43488;46.934;8.276;2022-08-19T04:04:35;588.33;;;405.08;;
57231;SDS011;43488;46.934;8.276;2022-08-19T04:07:07;591.38;;;412.85;;
57231;SDS011;43488;46.934;8.276;2022-08-19T04:09:36;599.95;;;344.75;;
57231;SDS011;43488;46.934;8.276;2022-08-19T04:12:04;608.50;;;355.50;;
57231;SDS011;43488;46.934;8.276;2022-08-19T04:14:33;600.40;;;344.45;;
57231;SDS011;43488;46.934;8.276;2022-08-19T04:17:02;593.17;;;418.88;;
57231;SDS011;43488;46.934;8.276;2022-08-19T04:19:31;603.00;;;340.73;;
57231;SDS011;43488;46.934;8.276;2022-08-19T04:22:01;589.50;;;404.98;;
57231;SDS011;43488;46.934;8.276;2022-08-19T04:24:30;591.30;;;406.85;;
57231;SDS011;43488;46.934;8.276;2022-08-19T04:26:59;597.70;;;420.77;;
57231;SDS011;43488;46.934;8.276;2022-08-19T04:29:32;599.90;;;337.88;;
57231;SDS011;43488;46.934;8.276;2022-08-19T04:32:00;606.55;;;349.75;;
57231;SDS011;43488;46.934;8.276;2022-08-19T04:34:28;593.90;;;414.00;;
57231;SDS011;43488;46.934;8.276;2022-08-19T04:36:56;603.40;;;353.13;;
57231;SDS011;43488;46.934;8.276;2022-08-19T04:39:26;597.70;;;414.48;;
57231;SDS011;43488;46.934;8.276;2022-08-19T04:42:17;594.08;;;409.45;;
57231;SDS011;43488;46.934;8.276;2022-08-19T04:45:04;593.92;;;414.65;;
57231;SDS011;43488;46.934;8.276;2022-08-19T04:47:33;589.88;;;407.42;;
57231;SDS011;43488;46.934;8.276;2022-08-19T04:50:00;599.00;;;417.55;;
57231;SDS011;43488;46.934;8.276;2022-08-19T04:52:28;595.67;;;415.42;;
57231;SDS011;43488;46.934;8.276;2022-08-19T04:54:58;600.00;;;424.45;;
57231;SDS011;43488;46.934;8.276;2022-08-19T04:57:25;599.22;;;428.60;;
57231;SDS011;43488;46.934;8.276;2022-08-19T04:59:54;600.88;;;425.58;;
57231;SDS011;43488;46.934;8.276;2022-08-19T05:02:24;603.80;;;339.67;;
57231;SDS011;43488;46.934;8.276;2022-08-19T05:04:56;596.80;;;413.95;;
57231;SDS011;43488;46.934;8.276;2022-08-19T05:07:27;601.30;;;346.98;;
57231;SDS011;43488;46.934;8.276;2022-08-19T05:09:55;608.05;;;348.52;;
57231;SDS011;43488;46.934;8.276;2022-08-19T05:12:22;600.95;;;425.67;;
57231;SDS011;43488;46.934;8.276;2022-08-19T05:14:50;599.28;;;420.88;;
57231;SDS011;43488;46.934;8.276;2022-08-19T05:17:18;593.17;;;414.45;;
57231;SDS011;43488;46.934;8.276;2022-08-19T05:19:45;609.67;;;354.17;;
57231;SDS011;43488;46.934;8.276;2022-08-19T05:22:32;606.92;;;357.02;;
57231;SDS011;43488;46.934;8.276;2022-08-19T05:25:02;604.67;;;342.95;;
57231;SDS011;43488;46.934;8.276;2022-08-19T05:27:33;608.45;;;353.45;;
57231;SDS011;43488;46.934;8.276;2022-08-19T05:30:00;601.17;;;344.17;;
57231;SDS011;43488;46.934;8.276;2022-08-19T05:32:28;595.90;;;416.52;;
57231;SDS011;43488;46.934;8.276;2022-08-19T05:34:55;594.30;;;411.15;;
57231;SDS011;43488;46.934;8.276;2022-08-19T05:37:23;609.17;;;353.88;;
57231;SDS011;43488;46.934;8.276;2022-08-19T05:39:54;602.67;;;416.97;;
57231;SDS011;43488;46.934;8.276;2022-08-19T05:42:22;608.97;;;352.35;;
57231;SDS011;43488;46.934;8.276;2022-08-19T05:44:50;605.15;;;340.88;;
57231;SDS011;43488;46.934;8.276;2022-08-19T05:47:19;603.05;;;349.50;;
57231;SDS011;43488;46.934;8.276;2022-08-19T05:49:47;601.33;;;342.45;;
57231;SDS011;43488;46.934;8.276;2022-08-19T05:52:16;597.13;;;416.27;;
57231;SDS011;43488;46.934;8.276;2022-08-19T05:54:45;600.38;;;420.63;;
57231;SDS011;43488;46.934;8.276;2022-08-19T05:57:14;607.72;;;353.02;;
57231;SDS011;43488;46.934;8.276;2022-08-19T05:59:42;605.80;;;342.38;;
57231;SDS011;43488;46.934;8.276;2022-08-19T06:02:15;601.45;;;344.52;;
57231;SDS011;43488;46.934;8.276;2022-08-19T06:04:42;594.47;;;412.25;;
57231;SDS011;43488;46.934;8.276;2022-08-19T06:07:12;593.28;;;414.73;;
57231;SDS011;43488;46.934;8.276;2022-08-19T06:09:40;607.65;;;348.92;;
57231;SDS011;43488;46.934;8.276;2022-08-19T06:12:10;611.55;;;359.65;;
57231;SDS011;43488;46.934;8.276;2022-08-19T06:14:38;608.17;;;348.23;;
57231;SDS011;43488;46.934;8.276;2022-08-19T06:17:08;600.05;;;425.83;;
57231;SDS011;43488;46.934;8.276;2022-08-19T06:19:35;604.38;;;431.23;;
57231;SDS011;43488;46.934;8.276;2022-08-19T06:22:05;601.95;;;346.52;;
57231;SDS011;43488;46.934;8.276;2022-08-19T06:24:34;603.75;;;427.23;;
57231;SDS011;43488;46.934;8.276;2022-08-19T06:27:02;597.28;;;418.98;;
57231;SDS011;43488;46.934;8.276;2022-08-19T06:29:31;600.15;;;340.98;;
57231;SDS011;43488;46.934;8.276;2022-08-19T06:32:00;603.63;;;350.60;;
57231;SDS011;43488;46.934;8.276;2022-08-19T06:34:30;593.28;;;411.20;;
57231;SDS011;43488;46.934;8.276;2022-08-19T06:37:00;593.95;;;413.42;;
57231;SDS011;43488;46.934;8.276;2022-08-19T06:39:31;597.25;;;416.83;;
57231;SDS011;43488;46.934;8.276;2022-08-19T06:42:03;610.78;;;360.25;;
57231;SDS011;43488;46.934;8.276;2022-08-19T06:44:34;600.33;;;420.17;;
57231;SDS011;43488;46.934;8.276;2022-08-19T06:47:03;600.78;;;347.58;;
57231;SDS011;43488;46.934;8.276;2022-08-19T06:49:33;604.97;;;341.17;;
57231;SDS011;43488;46.934;8.276;2022-08-19T06:52:03;592.25;;;408.98;;
57231;SDS011;43488;46.934;8.276;2022-08-19T06:54:32;607.08;;;349.17;;
57231;SDS011;43488;46.934;8.276;2022-08-19T06:57:00;600.75;;;347.33;;
57231;SDS011;43488;46.934;8.276;2022-08-19T06:59:29;608.30;;;349.45;;
57231;SDS011;43488;46.934;8.276;2022-08-19T07:02:01;602.00;;;420.85;;
57231;SDS011;43488;46.934;8.276;2022-08-19T07:04:35;607.92;;;349.88;;
57231;SDS011;43488;46.934;8.276;2022-08-19T07:07:06;599.58;;;422.65;;
57231;SDS011;43488;46.934;8.276;2022-08-19T07:09:36;601.70;;;413.50;;
57231;SDS011;43488;46.934;8.276;2022-08-19T07:12:07;605.60;;;348.67;;
57231;SDS011;43488;46.934;8.276;2022-08-19T07:14:38;599.53;;;417.85;;
57231;SDS011;43488;46.934;8.276;2022-08-19T07:17:07;592.13;;;406.35;;
57231;SDS011;43488;46.934;8.276;2022-08-19T07:19:38;600.38;;;340.67;;
57231;SDS011;43488;46.934;8.276;2022-08-19T07:22:08;596.50;;;411.73;;
57231;SDS011;43488;46.934;8.276;2022-08-19T07:24:38;600.67;;;425.15;;
57231;SDS011;43488;46.934;8.276;2022-08-19T07:27:05;601.03;;;423.30;;
57231;SDS011;43488;46.934;8.276;2022-08-19T07:29:34;596.83;;;413.58;;
57231;SDS011;43488;46.934;8.276;2022-08-19T07:32:04;604.83;;;342.38;;
57231;SDS011;43488;46.934;8.276;2022-08-19T07:34:32;598.75;;;417.70;;
57231;SDS011;43488;46.934;8.276;2022-08-19T07:37:04;606.40;;;348.75;;
57231;SDS011;43488;46.934;8.276;2022-08-19T07:39:33;606.50;;;342.50;;
57231;SDS011;43488;46.934;8.276;2022-08-19T07:42:05;604.73;;;340.77;;
57231;SDS011;43488;46.934;8.276;2022-08-19T07:44:35;604.92;;;349.10;;
57231;SDS011;43488;46.934;8.276;2022-08-19T07:47:03;609.38;;;353.35;;
57231;SDS011;43488;46.934;8.276;2022-08-19T07:49:32;600.10;;;413.38;;
57231;SDS011;43488;46.934;8.276;2022-08-19T07:52:04;602.10;;;423.23;;
57231;SDS011;43488;46.934;8.276;2022-08-19T07:54:36;602.03;;;422.35;;
57231;SDS011;43488;46.934;8.276;2022-08-19T07:57:06;607.40;;;350.98;;
57231;SDS011;43488;46.934;8.276;2022-08-19T07:59:34;611.88;;;348.73;;
57231;SDS011;43488;46.934;8.276;2022-08-19T08:02:03;613.67;;;355.45;;
57231;SDS011;43488;46.934;8.276;2022-08-19T08:04:31;606.22;;;419.30;;
57231;SDS011;43488;46.934;8.276;2022-08-19T08:07:18;612.75;;;354.40;;
57231;SDS011;43488;46.934;8.276;2022-08-19T08:10:05;601.72;;;409.63;;
57231;SDS011;43488;46.934;8.276;2022-08-19T08:12:35;604.38;;;419.73;;
57231;SDS011;43488;46.934;8.276;2022-08-19T08:15:11;605.25;;;420.02;;
57231;SDS011;43488;46.934;8.276;2022-08-19T08:17:43;609.20;;;427.33;;
57231;SDS011;43488;46.934;8.276;2022-08-19T08:20:12;607.80;;;422.27;;
57231;SDS011;43488;46.934;8.276;2022-08-19T08:22:44;616.63;;;360.73;;
57231;SDS011;43488;46.934;8.276;2022-08-19T08:25:31;606.25;;;417.83;;
57231;SDS011;43488;46.934;8.276;2022-08-19T08:27:59;604.45;;;421.85;;
57231;SDS011;43488;46.934;8.276;2022-08-19T08:30:27;613.33;;;348.00;;
57231;SDS011;43488;46.934;8.276;2022-08-19T08:32:56;604.67;;;419.58;;
57231;SDS011;43488;46.934;8.276;2022-08-19T08:35:23;613.08;;;350.33;;
57231;SDS011;43488;46.934;8.276;2022-08-19T08:37:52;615.38;;;355.15;;
57231;SDS011;43488;46.934;8.276;2022-08-19T08:40:23;611.22;;;423.33;;
57231;SDS011;43488;46.934;8.276;2022-08-19T08:51:37;610.78;;;342.17;;
57231;SDS011;43488;46.934;8.276;2022-08-19T08:54:15;605.35;;;420.15;;
57231;SDS011;43488;46.934;8.276;2022-08-19T08:56:47;606.25;;;417.92;;
57231;SDS011;43488;46.934;8.276;2022-08-19T09:02:03;615.95;;;346.08;;
57231;SDS011;43488;46.934;8.276;2022-08-19T09:04:31;607.75;;;347.10;;
57231;SDS011;43488;46.934;8.276;2022-08-19T09:07:11;613.83;;;348.35;;
57231;SDS011;43488;46.934;8.276;2022-08-19T09:09:51;608.63;;;348.25;;
57231;SDS011;43488;46.934;8.276;2022-08-19T09:12:35;607.70;;;342.75;;
57231;SDS011;43488;46.934;8.276;2022-08-19T09:15:46;607.38;;;418.67;;
57231;SDS011;43488;46.934;8.276;2022-08-19T09:18:23;605.08;;;410.17;;
57231;SDS011;43488;46.934;8.276;2022-08-19T09:20:50;612.70;;;426.70;;
57231;SDS011;43488;46.934;8.276;2022-08-19T09:23:19;612.97;;;342.08;;
57231;SDS011;43488;46.934;8.276;2022-08-19T09:25:51;610.20;;;418.67;;
57231;SDS011;43488;46.934;8.276;2022-08-19T09:28:19;615.28;;;351.20;;
57231;SDS011;43488;46.934;8.276;2022-08-19T09:30:46;613.22;;;344.00;;
57231;SDS011;43488;46.934;8.276;2022-08-19T09:33:13;608.38;;;416.13;;
57231;SDS011;43488;46.934;8.276;2022-08-19T09:35:42;606.20;;;414.17;;
57231;SDS011;43488;46.934;8.276;2022-08-19T09:38:10;611.50;;;349.67;;
57231;SDS011;43488;46.934;8.276;2022-08-19T09:40:37;616.50;;;349.25;;
57231;SDS011;43488;46.934;8.276;2022-08-19T09:43:05;612.50;;;413.67;;
57231;SDS011;43488;46.934;8.276;2022-08-19T09:45:35;610.33;;;417.38;;
57231;SDS011;43488;46.934;8.276;2022-08-19T09:48:03;613.08;;;349.95;;
57231;SDS011;43488;46.934;8.276;2022-08-19T09:50:31;609.65;;;420.83;;
57231;SDS011;43488;46.934;8.276;2022-08-19T09:53:02;615.45;;;347.55;;
57231;SDS011;43488;46.934;8.276;2022-08-19T09:55:29;612.45;;;349.17;;
57231;SDS011;43488;46.934;8.276;2022-08-19T09:57:56;619.67;;;353.30;;
57231;SDS011;43488;46.934;8.276;2022-08-19T10:00:24;607.78;;;415.13;;
57231;SDS011;43488;46.934;8.276;2022-08-19T10:02:53;619.80;;;354.15;;
57231;SDS011;43488;46.934;8.276;2022-08-19T10:05:20;614.58;;;355.02;;
57231;SDS011;43488;46.934;8.276;2022-08-19T10:08:07;614.47;;;425.02;;
57231;SDS011;43488;46.934;8.276;2022-08-19T10:10:35;614.92;;;427.33;;
57231;SDS011;43488;46.934;8.276;2022-08-19T10:13:03;614.65;;;423.88;;
57231;SDS011;43488;46.934;8.276;2022-08-19T10:15:31;611.85;;;426.13;;
57231;SDS011;43488;46.934;8.276;2022-08-19T10:17:58;617.00;;;429.85;;
57231;SDS011;43488;46.934;8.276;2022-08-19T10:20:26;616.47;;;351.65;;
57231;SDS011;43488;46.934;8.276;2022-08-19T10:22:54;620.72;;;354.58;;
57231;SDS011;43488;46.934;8.276;2022-08-19T10:25:21;607.33;;;412.58;;
57231;SDS011;43488;46.934;8.276;2022-08-19T10:27:49;607.00;;;412.60;;
57231;SDS011;43488;46.934;8.276;2022-08-19T10:30:16;618.35;;;363.08;;
57231;SDS011;43488;46.934;8.276;2022-08-19T10:32:45;616.78;;;356.00;;
57231;SDS011;43488;46.934;8.276;2022-08-19T10:35:13;611.42;;;416.80;;
57231;SDS011;43488;46.934;8.276;2022-08-19T10:37:42;609.55;;;341.55;;
57231;SDS011;43488;46.934;8.276;2022-08-19T10:40:09;611.05;;;424.15;;
57231;SDS011;43488;46.934;8.276;2022-08-19T10:42:38;613.95;;;421.20;;
57231;SDS011;43488;46.934;8.276;2022-08-19T10:45:05;608.35;;;418.52;;
57231;SDS011;43488;46.934;8.276;2022-08-19T10:47:34;620.78;;;359.42;;
57231;SDS011;43488;46.934;8.276;2022-08-19T10:50:02;622.53;;;364.75;;
57231;SDS011;43488;46.934;8.276;2022-08-19T10:52:49;617.80;;;349.63;;
57231;SDS011;43488;46.934;8.276;2022-08-19T10:55:18;617.72;;;350.90;;
57231;SDS011;43488;46.934;8.276;2022-08-19T10:58:14;618.37;;;431.57;;
57231;SDS011;43488;46.934;8.276;2022-08-19T11:00:55;619.38;;;358.10;;
57231;SDS011;43488;46.934;8.276;2022-08-19T11:03:26;612.42;;;345.10;;
57231;SDS011;43488;46.934;8.276;2022-08-19T11:06:02;609.28;;;414.02;;
57231;SDS011;43488;46.934;8.276;2022-08-19T11:08:33;613.85;;;427.38;;
57231;SDS011;43488;46.934;8.276;2022-08-19T11:11:04;614.83;;;416.33;;
57231;SDS011;43488;46.934;8.276;2022-08-19T11:13:34;616.72;;;423.75;;
57231;SDS011;43488;46.934;8.276;2022-08-19T11:16:08;620.25;;;356.88;;
57231;SDS011;43488;46.934;8.276;2022-08-19T11:18:43;611.20;;;343.65;;
57231;SDS011;43488;46.934;8.276;2022-08-19T11:21:23;612.28;;;421.60;;
57231;SDS011;43488;46.934;8.276;2022-08-19T11:24:05;610.47;;;415.25;;
57231;SDS011;43488;46.934;8.276;2022-08-19T11:26:40;608.97;;;417.95;;
57231;SDS011;43488;46.934;8.276;2022-08-19T11:29:09;612.85;;;423.45;;
57231;SDS011;43488;46.934;8.276;2022-08-19T11:31:40;618.67;;;354.10;;
57231;SDS011;43488;46.934;8.276;2022-08-19T11:34:12;609.35;;;414.52;;
57231;SDS011;43488;46.934;8.276;2022-08-19T11:36:46;609.70;;;344.42;;
57231;SDS011;43488;46.934;8.276;2022-08-19T11:39:16;615.45;;;344.83;;
57231;SDS011;43488;46.934;8.276;2022-08-19T11:44:14;611.67;;;407.38;;
57231;SDS011;43488;46.934;8.276;2022-08-19T11:46:42;616.95;;;349.75;;
57231;SDS011;43488;46.934;8.276;2022-08-19T11:49:13;615.92;;;424.92;;
57231;SDS011;43488;46.934;8.276;2022-08-19T11:51:46;618.47;;;353.75;;
57231;SDS011;43488;46.934;8.276;2022-08-19T11:54:17;612.97;;;418.90;;
57231;SDS011;43488;46.934;8.276;2022-08-19T11:56:44;609.20;;;343.65;;
57231;SDS011;43488;46.934;8.276;2022-08-19T11:59:12;617.75;;;350.23;;
57231;SDS011;43488;46.934;8.276;2022-08-19T12:01:40;615.92;;;433.48;;
57231;SDS011;43488;46.934;8.276;2022-08-19T12:04:08;618.83;;;353.30;;
57231;SDS011;43488;46.934;8.276;2022-08-19T12:06:37;618.05;;;353.80;;
57231;SDS011;43488;46.934;8.276;2022-08-19T12:09:08;613.22;;;425.20;;
57231;SDS011;43488;46.934;8.276;2022-08-19T12:11:37;613.15;;;424.30;;
57231;SDS011;43488;46.934;8.276;2022-08-19T12:14:06;610.30;;;340.95;;
57231;SDS011;43488;46.934;8.276;2022-08-19T12:16:39;612.95;;;351.45;;
57231;SDS011;43488;46.934;8.276;2022-08-19T12:19:07;611.65;;;421.45;;
57231;SDS011;43488;46.934;8.276;2022-08-19T12:21:35;615.58;;;348.08;;
57231;SDS011;43488;46.934;8.276;2022-08-19T12:24:04;610.60;;;417.30;;
57231;SDS011;43488;46.934;8.276;2022-08-19T12:26:33;607.25;;;412.67;;
57231;SDS011;43488;46.934;8.276;2022-08-19T12:29:01;613.20;;;347.73;;
57231;SDS011;43488;46.934;8.276;2022-08-19T12:31:29;612.95;;;429.25;;
57231;SDS011;43488;46.934;8.276;2022-08-19T12:33:57;618.13;;;361.73;;
57231;SDS011;43488;46.934;8.276;2022-08-19T12:36:24;610.80;;;420.30;;
57231;SDS011;43488;46.934;8.276;2022-08-19T12:38:51;612.05;;;415.52;;
57231;SDS011;43488;46.934;8.276;2022-08-19T12:41:20;620.15;;;359.98;;
57231;SDS011;43488;46.934;8.276;2022-08-19T12:43:49;614.35;;;349.95;;
57231;SDS011;43488;46.934;8.276;2022-08-19T12:46:17;612.15;;;421.95;;
57231;SDS011;43488;46.934;8.276;2022-08-19T12:48:46;612.53;;;347.63;;
57231;SDS011;43488;46.934;8.276;2022-08-19T12:51:15;616.60;;;436.48;;
57231;SDS011;43488;46.934;8.276;2022-08-19T12:53:47;618.80;;;350.85;;
57231;SDS011;43488;46.934;8.276;2022-08-19T12:56:17;615.13;;;429.05;;
57231;SDS011;43488;46.934;8.276;2022-08-19T12:58:45;617.45;;;421.42;;
57231;SDS011;43488;46.934;8.276;2022-08-19T13:01:14;615.25;;;428.40;;
57231;SDS011;43488;46.934;8.276;2022-08-19T13:03:44;614.38;;;347.58;;
57231;SDS011;43488;46.934;8.276;2022-08-19T13:08:42;614.53;;;345.77;;
57231;SDS011;43488;46.934;8.276;2022-08-19T13:11:13;615.10;;;430.25;;
57231;SDS011;43488;46.934;8.276;2022-08-19T13:13:45;612.90;;;421.45;;
57231;SDS011;43488;46.934;8.276;2022-08-19T13:16:17;613.38;;;422.13;;
57231;SDS011;43488;46.934;8.276;2022-08-19T13:18:48;617.53;;;357.58;;
57231;SDS011;43488;46.934;8.276;2022-08-19T13:21:19;615.47;;;350.97;;
57231;SDS011;43488;46.934;8.276;2022-08-19T13:23:50;618.83;;;424.88;;
57231;SDS011;43488;46.934;8.276;2022-08-19T13:26:19;612.60;;;348.83;;
57231;SDS011;43488;46.934;8.276;2022-08-19T13:28:47;618.55;;;433.15;;
57231;SDS011;43488;46.934;8.276;2022-08-19T13:31:34;612.72;;;425.13;;
57231;SDS011;43488;46.934;8.276;2022-08-19T13:34:30;615.53;;;423.08;;
57231;SDS011;43488;46.934;8.276;2022-08-19T13:37:02;618.10;;;355.05;;
57231;SDS011;43488;46.934;8.276;2022-08-19T13:39:31;612.55;;;425.38;;
57231;SDS011;43488;46.934;8.276;2022-08-19T13:42:01;613.35;;;423.95;;
57231;SDS011;43488;46.934;8.276;2022-08-19T13:44:30;618.90;;;350.00;;
57231;SDS011;43488;46.934;8.276;2022-08-19T13:47:02;615.05;;;353.25;;
57231;SDS011;43488;46.934;8.276;2022-08-19T13:49:34;611.45;;;342.13;;
57231;SDS011;43488;46.934;8.276;2022-08-19T13:52:03;614.38;;;430.23;;
57231;SDS011;43488;46.934;8.276;2022-08-19T13:54:35;610.13;;;343.05;;
57231;SDS011;43488;46.934;8.276;2022-08-19T13:57:03;613.22;;;426.65;;
57231;SDS011;43488;46.934;8.276;2022-08-19T13:59:30;611.45;;;344.98;;
57231;SDS011;43488;46.934;8.276;2022-08-19T14:01:59;612.00;;;348.50;;
57231;SDS011;43488;46.934;8.276;2022-08-19T14:04:27;614.15;;;418.05;;
57231;SDS011;43488;46.934;8.276;2022-08-19T14:06:54;620.47;;;358.40;;
57231;SDS011;43488;46.934;8.276;2022-08-19T14:09:22;617.65;;;428.55;;
57231;SDS011;43488;46.934;8.276;2022-08-19T14:11:50;610.65;;;422.60;;
57231;SDS011;43488;46.934;8.276;2022-08-19T14:14:17;616.40;;;423.42;;
57231;SDS011;43488;46.934;8.276;2022-08-19T14:16:45;613.00;;;429.60;;
57231;SDS011;43488;46.934;8.276;2022-08-19T14:19:12;614.03;;;351.48;;
57231;SDS011;43488;46.934;8.276;2022-08-19T14:21:39;612.22;;;349.58;;
57231;SDS011;43488;46.934;8.276;2022-08-19T14:24:07;613.90;;;418.60;;
57231;SDS011;43488;46.934;8.276;2022-08-19T14:26:35;617.15;;;353.25;;
57231;SDS011;43488;46.934;8.276;2022-08-19T14:29:03;611.33;;;418.50;;
57231;SDS011;43488;46.934;8.276;2022-08-19T14:31:30;613.55;;;424.52;;
57231;SDS011;43488;46.934;8.276;2022-08-19T14:33:58;614.03;;;425.98;;